Time;durP1;ratioP1;P1;durP2;ratioP2;P2;SDS_P1;SDS_P2;PMS_P1;PMS_P2;Temp;Humidity;BMP_temperature;BMP_pressure;BME280_temperature;BME280_humidity;BME280_pressure;Samples;Min_cycle;Max_cycle;Signal;HPM_P1;HPM_P2
2022/10/24 00:00:17;;;;;;;8.95;3.83;;;13.50;99.90;;;;;;4971414;28;20061;-85
2022/10/24 00:02:43;;;;;;;13.00;4.50;;;13.40;99.90;;;;;;4977973;28;20055;-86
2022/10/24 00:05:12;;;;;;;9.93;4.22;;;13.50;99.90;;;;;;4959128;28;20158;-89
2022/10/24 00:07:38;;;;;;;11.43;4.05;;;13.40;99.90;;;;;;4975071;28;20410;-86
2022/10/24 00:10:05;;;;;;;9.07;3.67;;;13.40;99.90;;;;;;4943068;28;20134;-86
2022/10/24 00:12:31;;;;;;;11.32;4.55;;;13.40;99.90;;;;;;4973451;28;20050;-89
2022/10/24 00:14:57;;;;;;;7.30;3.20;;;13.40;99.90;;;;;;4972289;28;20059;-85
2022/10/24 00:17:23;;;;;;;10.95;3.95;;;13.40;99.90;;;;;;4959164;28;20050;-88
2022/10/24 00:19:49;;;;;;;10.80;3.55;;;13.40;99.90;;;;;;4976059;28;20495;-84
2022/10/24 00:22:15;;;;;;;7.00;2.92;;;13.40;99.90;;;;;;4959551;28;20046;-85
2022/10/24 00:24:41;;;;;;;7.68;3.25;;;13.40;99.90;;;;;;4958937;28;20550;-88
2022/10/24 00:27:08;;;;;;;8.32;2.92;;;13.40;99.90;;;;;;4942350;28;20134;-90
2022/10/24 00:29:34;;;;;;;8.43;2.70;;;13.40;99.90;;;;;;4958943;28;20066;-85
2022/10/24 00:32:00;;;;;;;6.72;2.80;;;13.40;99.90;;;;;;4976641;28;20058;-89
2022/10/24 00:34:25;;;;;;;8.88;3.53;;;13.40;99.90;;;;;;4977244;28;20505;-86
2022/10/24 00:36:51;;;;;;;8.95;2.83;;;13.40;99.90;;;;;;4979183;28;20402;-89
2022/10/24 00:39:17;;;;;;;7.13;2.65;;;13.40;99.90;;;;;;4943594;28;20058;-89
2022/10/24 00:41:43;;;;;;;5.95;2.20;;;13.40;99.90;;;;;;4980270;28;20081;-90
2022/10/24 00:44:27;;;;;;;7.97;2.55;;;13.40;99.90;;;;;;4982728;28;20062;-90
2022/10/24 00:47:03;;;;;;;7.63;2.58;;;13.40;99.90;;;;;;4977089;28;20057;-84
2022/10/24 00:49:47;;;;;;;8.75;2.60;;;13.40;99.90;;;;;;4959401;28;20054;-84
2022/10/24 00:52:22;;;;;;;10.18;2.55;;;13.40;99.90;;;;;;4976457;28;20377;-84
2022/10/24 00:54:49;;;;;;;7.43;2.20;;;13.40;99.90;;;;;;4974996;28;20124;-86
2022/10/24 00:57:21;;;;;;;9.40;2.75;;;13.40;99.90;;;;;;4957807;28;20055;-84
2022/10/24 00:59:56;;;;;;;8.07;2.72;;;13.40;99.90;;;;;;4975368;28;20054;-84
2022/10/24 01:02:22;;;;;;;;;;;13.40;99.90;;;;;;4976571;28;20168;-87
2022/10/24 01:04:48;;;;;;;10.63;2.42;;;13.40;99.90;;;;;;4960947;28;19937;-84
2022/10/24 01:07:40;;;;;;;6.78;2.45;;;13.40;99.90;;;;;;4977758;28;20058;-84
2022/10/24 01:10:30;;;;;;;11.15;2.60;;;13.40;99.90;;;;;;4958462;28;20053;-85
2022/10/24 01:13:21;;;;;;;8.50;2.42;;;13.50;99.90;;;;;;4959986;28;20054;-84
2022/10/24 01:15:59;;;;;;;9.13;2.55;;;13.50;99.90;;;;;;4976711;28;20062;-84
2022/10/24 01:18:36;;;;;;;9.07;2.30;;;13.50;99.90;;;;;;4977750;28;20065;-86
2022/10/24 01:21:33;;;;;;;7.88;2.22;;;13.50;99.90;;;;;;4959600;28;20486;-84
2022/10/24 01:24:02;;;;;;;8.30;2.35;;;13.50;99.90;;;;;;4975983;28;20062;-83
2022/10/24 01:26:50;;;;;;;8.07;2.22;;;13.40;99.90;;;;;;4976235;28;20470;-85
2022/10/24 01:29:28;;;;;;;7.22;2.05;;;13.50;99.90;;;;;;4957097;28;20410;-84
2022/10/24 01:32:10;;;;;;;9.48;2.00;;;13.40;99.90;;;;;;4977143;28;20046;-86
2022/10/24 01:34:47;;;;;;;9.43;2.80;;;13.40;99.90;;;;;;4975428;28;20409;-86
2022/10/24 01:37:20;;;;;;;8.30;2.00;;;13.50;99.90;;;;;;4958173;28;20462;-85
2022/10/24 01:39:51;;;;;;;7.43;2.20;;;13.50;99.90;;;;;;4957224;28;20503;-89
2022/10/24 01:42:21;;;;;;;7.60;3.53;;;13.40;99.90;;;;;;4957611;28;20053;-86
2022/10/24 01:44:50;;;;;;;7.45;2.40;;;13.40;99.90;;;;;;4975224;28;20054;-84
2022/10/24 01:47:28;;;;;;;10.63;2.25;;;13.50;99.90;;;;;;4958096;28;20487;-87
2022/10/24 01:50:01;;;;;;;7.13;2.50;;;13.60;99.90;;;;;;4957663;28;20058;-88
2022/10/24 01:52:32;;;;;;;11.95;2.50;;;13.60;99.90;;;;;;4957932;28;20043;-85
2022/10/24 01:54:58;;;;;;;7.38;2.38;;;13.60;99.90;;;;;;4945179;28;20050;-88
2022/10/24 01:57:29;;;;;;;5.18;2.00;;;13.60;99.90;;;;;;4947894;28;20057;-85
2022/10/24 01:59:55;;;;;;;6.30;2.13;;;13.60;99.90;;;;;;4977389;28;20550;-87
2022/10/24 02:02:34;;;;;;;8.43;2.65;;;13.70;99.90;;;;;;4976186;28;20047;-83
2022/10/24 02:05:06;;;;;;;4.90;2.00;;;13.70;99.90;;;;;;4975520;28;20058;-84
2022/10/24 02:07:34;;;;;;;6.20;2.13;;;13.70;99.90;;;;;;4975131;28;20170;-86
2022/10/24 02:10:10;;;;;;;7.78;2.17;;;13.70;99.90;;;;;;4957610;28;20055;-84
2022/10/24 02:12:45;;;;;;;8.93;2.60;;;13.70;99.90;;;;;;4976351;28;20055;-83
2022/10/24 02:15:24;;;;;;;5.50;2.17;;;13.70;99.90;;;;;;4980836;28;20058;-83
2022/10/24 02:17:51;;;;;;;7.90;1.98;;;13.70;99.90;;;;;;4983463;28;20055;-83
2022/10/24 02:20:23;;;;;;;8.13;2.17;;;13.80;99.90;;;;;;4982201;28;20061;-83
2022/10/24 02:23:31;;;;;;;9.27;2.22;;;13.80;99.90;;;;;;4982261;28;20410;-85
2022/10/24 02:26:01;;;;;;;10.23;2.60;;;13.80;99.90;;;;;;4979853;28;20054;-81
2022/10/24 02:28:32;;;;;;;13.02;3.00;;;13.80;99.90;;;;;;4976002;28;20043;-82
2022/10/24 02:31:10;;;;;;;14.30;4.10;;;13.80;99.90;;;;;;4976228;28;20054;-87
2022/10/24 02:33:39;;;;;;;12.40;2.83;;;13.80;99.90;;;;;;4959957;28;20147;-81
2022/10/24 02:36:09;;;;;;;10.50;2.83;;;13.80;99.90;;;;;;4975638;28;20057;-83
2022/10/24 02:38:41;;;;;;;9.93;2.28;;;13.90;99.90;;;;;;4956110;28;20133;-83
2022/10/24 02:41:15;;;;;;;12.88;2.95;;;13.90;99.90;;;;;;4955829;28;20065;-85
2022/10/24 02:43:43;;;;;;;8.00;2.30;;;13.90;99.90;;;;;;4974553;28;20054;-81
2022/10/24 02:46:12;;;;;;;8.35;2.40;;;13.90;99.90;;;;;;4957932;28;20647;-88
2022/10/24 02:48:43;;;;;;;12.02;3.13;;;14.00;99.90;;;;;;4978132;28;20514;-86
2022/10/24 02:51:11;;;;;;;8.32;3.08;;;14.00;99.90;;;;;;4975866;28;20050;-82
2022/10/24 02:53:38;;;;;;;13.35;3.17;;;14.10;99.90;;;;;;4956532;28;20053;-81
2022/10/24 02:56:04;;;;;;;8.15;3.03;;;14.10;99.90;;;;;;4974121;28;20406;-85
2022/10/24 02:58:30;;;;;;;6.68;3.13;;;14.10;99.90;;;;;;4973850;28;20052;-84
2022/10/24 03:00:56;;;;;;;8.57;2.58;;;14.00;99.90;;;;;;4978244;28;20055;-90
2022/10/24 03:03:22;;;;;;;12.95;2.70;;;14.00;99.90;;;;;;4975839;28;20766;-85
2022/10/24 03:05:48;;;;;;;10.52;2.55;;;14.00;99.90;;;;;;4973067;28;20050;-82
2022/10/24 03:08:14;;;;;;;10.80;3.22;;;14.00;99.90;;;;;;4973423;28;20423;-83
2022/10/24 03:10:40;;;;;;;7.22;2.70;;;14.00;99.90;;;;;;4973174;28;20051;-81
2022/10/24 03:13:06;;;;;;;10.98;3.10;;;14.00;99.90;;;;;;4955484;28;20109;-81
2022/10/24 03:15:32;;;;;;;9.70;3.05;;;14.10;99.90;;;;;;4973209;28;20047;-89
2022/10/24 03:17:58;;;;;;;8.43;2.55;;;14.10;99.90;;;;;;4972707;28;20507;-84
2022/10/24 03:20:24;;;;;;;10.20;2.80;;;14.10;99.90;;;;;;4955395;28;20054;-83
2022/10/24 03:22:51;;;;;;;9.88;2.55;;;14.10;99.90;;;;;;4955695;28;20573;-84
2022/10/24 03:25:17;;;;;;;14.10;2.50;;;14.10;99.90;;;;;;4973144;28;20162;-82
2022/10/24 03:27:43;;;;;;;13.10;3.30;;;14.10;99.90;;;;;;4975858;28;20495;-83
2022/10/24 03:30:09;;;;;;;7.85;2.17;;;14.20;99.90;;;;;;4958071;28;20065;-82
2022/10/24 03:32:35;;;;;;;13.43;3.70;;;14.20;99.90;;;;;;4956946;28;20054;-84
2022/10/24 03:35:02;;;;;;;7.65;2.55;;;14.30;99.90;;;;;;4955602;28;20502;-84
2022/10/24 03:37:28;;;;;;;9.02;2.60;;;14.30;99.90;;;;;;4975711;28;20439;-84
2022/10/24 03:39:54;;;;;;;9.18;2.13;;;14.30;99.90;;;;;;4975516;28;20054;-84
2022/10/24 03:42:21;;;;;;;8.20;3.33;;;14.30;99.90;;;;;;4971551;28;20050;-86
2022/10/24 03:44:47;;;;;;;9.20;2.88;;;14.40;99.90;;;;;;4973421;28;20464;-84
2022/10/24 03:47:13;;;;;;;10.07;2.83;;;14.30;99.90;;;;;;4973601;28;20090;-89
2022/10/24 03:49:39;;;;;;;12.18;2.55;;;14.30;99.90;;;;;;4940914;28;20055;-87
2022/10/24 03:52:05;;;;;;;9.70;2.65;;;14.30;99.90;;;;;;4956927;28;20129;-85
2022/10/24 03:54:31;;;;;;;9.18;2.58;;;14.30;99.90;;;;;;4973372;28;20426;-86
2022/10/24 03:56:57;;;;;;;6.93;2.63;;;14.30;99.90;;;;;;4955800;28;20094;-85
2022/10/24 03:59:23;;;;;;;10.02;2.60;;;14.30;99.90;;;;;;4972707;28;20094;-86
2022/10/24 04:01:49;;;;;;;6.95;2.38;;;14.30;99.90;;;;;;4954729;28;20085;-86
2022/10/24 04:04:15;;;;;;;10.60;2.70;;;14.30;99.90;;;;;;4955026;28;20089;-86
2022/10/24 04:06:41;;;;;;;9.93;3.15;;;14.30;99.90;;;;;;4955061;28;20054;-86
2022/10/24 04:09:07;;;;;;;5.70;2.20;;;14.30;99.90;;;;;;4973757;28;20079;-86
2022/10/24 04:11:33;;;;;;;8.10;2.50;;;14.30;99.90;;;;;;4955985;28;20055;-87
2022/10/24 04:13:59;;;;;;;7.47;2.58;;;14.30;99.90;;;;;;4940650;28;20085;-88
2022/10/24 04:16:26;;;;;;;13.32;2.58;;;14.30;99.90;;;;;;4977517;28;20103;-85
2022/10/24 04:18:52;;;;;;;7.43;2.47;;;14.30;99.90;;;;;;4976959;28;20055;-83
2022/10/24 04:21:18;;;;;;;8.95;2.72;;;14.30;99.90;;;;;;4954911;28;20102;-84
2022/10/24 04:23:44;;;;;;;9.82;2.35;;;14.30;99.90;;;;;;4971932;28;20406;-82
2022/10/24 04:26:12;;;;;;;8.35;3.38;;;14.20;99.90;;;;;;4954886;28;20098;-86
2022/10/24 04:28:38;;;;;;;7.20;1.90;;;14.20;99.90;;;;;;4954917;28;20059;-85
2022/10/24 04:31:05;;;;;;;6.35;2.28;;;14.10;99.90;;;;;;4972466;28;20449;-86
2022/10/24 04:33:31;;;;;;;8.85;2.25;;;14.10;99.90;;;;;;4973934;28;20051;-82
2022/10/24 04:35:57;;;;;;;8.43;2.30;;;14.00;99.90;;;;;;4942710;28;20147;-85
2022/10/24 04:38:23;;;;;;;8.68;2.15;;;14.00;99.90;;;;;;4971404;28;20058;-84
2022/10/24 04:40:51;;;;;;;8.70;2.63;;;14.00;99.90;;;;;;4974273;28;20058;-84
2022/10/24 04:43:18;;;;;;;5.50;1.85;;;13.90;99.90;;;;;;4970704;28;20058;-85
2022/10/24 04:45:45;;;;;;;19.80;2.60;;;13.90;99.90;;;;;;4955473;28;20047;-86
2022/10/24 04:48:11;;;;;;;9.52;2.15;;;13.80;99.90;;;;;;4955875;28;20062;-85
2022/10/24 04:50:39;;;;;;;5.65;2.53;;;13.80;99.90;;;;;;4973231;28;20051;-88
2022/10/24 04:53:06;;;;;;;6.05;2.40;;;13.80;99.90;;;;;;4955381;28;20090;-85
2022/10/24 04:55:32;;;;;;;11.60;2.85;;;13.80;99.90;;;;;;4972236;28;20054;-83
2022/10/24 04:57:57;;;;;;;7.22;2.03;;;13.70;99.90;;;;;;4954812;28;20134;-83
2022/10/24 05:00:23;;;;;;;8.88;2.78;;;13.70;99.90;;;;;;4971958;28;20484;-85
2022/10/24 05:02:50;;;;;;;11.40;3.40;;;13.70;99.90;;;;;;4956781;28;20421;-83
2022/10/24 05:05:18;;;;;;;8.82;2.05;;;13.70;99.90;;;;;;4977107;28;20133;-84
2022/10/24 05:07:45;;;;;;;7.95;2.15;;;13.70;99.90;;;;;;4978478;28;20051;-83
2022/10/24 05:10:12;;;;;;;6.95;2.05;;;13.70;99.90;;;;;;4975654;28;20050;-84
2022/10/24 05:12:38;;;;;;;10.05;2.45;;;13.70;99.90;;;;;;4975546;28;20051;-83
2022/10/24 05:15:06;;;;;;;11.85;2.55;;;13.60;99.90;;;;;;4957522;28;20069;-86
2022/10/24 05:17:32;;;;;;;6.55;2.30;;;13.60;99.90;;;;;;4958165;28;20451;-85
2022/10/24 05:19:58;;;;;;;6.18;1.95;;;13.60;99.90;;;;;;4958097;28;20055;-87
2022/10/24 05:22:23;;;;;;;11.93;2.08;;;13.60;99.90;;;;;;4959191;28;20051;-85
2022/10/24 05:24:49;;;;;;;11.35;2.20;;;13.70;99.90;;;;;;4976044;28;20065;-89
2022/10/24 05:27:20;;;;;;;9.93;2.35;;;13.70;99.90;;;;;;4961845;28;20051;-86
2022/10/24 05:29:46;;;;;;;9.13;2.30;;;13.80;99.90;;;;;;4983036;28;20054;-82
2022/10/24 05:32:12;;;;;;;9.30;2.40;;;13.90;99.90;;;;;;4983872;28;20043;-87
2022/10/24 05:34:38;;;;;;;14.50;2.35;;;13.90;99.90;;;;;;4963705;28;20462;-83
2022/10/24 05:37:04;;;;;;;10.35;2.30;;;13.90;99.90;;;;;;4977986;28;20054;-87
2022/10/24 05:39:30;;;;;;;7.63;2.08;;;13.90;99.90;;;;;;4977986;28;20054;-83
2022/10/24 05:41:55;;;;;;;12.38;2.05;;;13.90;99.90;;;;;;4960425;28;20063;-83
2022/10/24 05:44:21;;;;;;;9.50;2.10;;;13.90;99.90;;;;;;4958337;28;20051;-84
2022/10/24 05:46:47;;;;;;;12.80;2.03;;;14.00;99.90;;;;;;4975115;28;20047;-84
2022/10/24 05:49:13;;;;;;;8.27;2.20;;;13.90;99.90;;;;;;4959562;28;20142;-82
2022/10/24 05:51:39;;;;;;;8.48;1.85;;;14.00;99.90;;;;;;4960297;28;20090;-83
2022/10/24 05:54:05;;;;;;;9.85;2.00;;;14.00;99.90;;;;;;4957581;28;20128;-90
2022/10/24 05:56:31;;;;;;;7.47;1.92;;;14.00;99.90;;;;;;4978668;28;20047;-88
2022/10/24 05:58:58;;;;;;;9.27;2.10;;;14.10;99.90;;;;;;4975459;28;20055;-85
2022/10/24 06:01:23;;;;;;;8.55;1.92;;;14.10;99.90;;;;;;4975594;28;20066;-87
2022/10/24 06:03:51;;;;;;;8.65;1.85;;;14.20;99.90;;;;;;4957650;28;20391;-85
2022/10/24 06:06:17;;;;;;;9.75;1.60;;;14.20;99.90;;;;;;4975139;28;20047;-86
2022/10/24 06:08:43;;;;;;;11.70;1.83;;;14.30;99.90;;;;;;4958529;28;20062;-88
2022/10/24 06:11:09;;;;;;;7.03;1.73;;;14.30;99.90;;;;;;4959465;28;20066;-84
2022/10/24 06:13:36;;;;;;;10.80;1.67;;;14.40;99.90;;;;;;4979902;28;20399;-84
2022/10/24 06:16:04;;;;;;;10.90;1.70;;;14.30;99.90;;;;;;4960929;28;20107;-85
2022/10/24 06:18:30;;;;;;;9.13;1.60;;;14.40;99.90;;;;;;4977520;28;20059;-86
2022/10/24 06:20:59;;;;;;;16.00;1.83;;;14.40;99.90;;;;;;4979262;28;20053;-84
2022/10/24 06:23:25;;;;;;;9.63;1.77;;;14.40;99.90;;;;;;4944667;28;20115;-82
2022/10/24 06:25:51;;;;;;;7.55;1.60;;;14.40;99.90;;;;;;4979965;28;20051;-87
2022/10/24 06:28:16;;;;;;;9.65;2.28;;;14.30;99.90;;;;;;4959935;28;20137;-90
2022/10/24 06:30:43;;;;;;;7.80;1.60;;;14.30;99.90;;;;;;4977390;28;20058;-85
2022/10/24 06:33:09;;;;;;;6.80;1.55;;;14.30;99.90;;;;;;4977206;28;20078;-86
2022/10/24 06:35:36;;;;;;;5.60;1.30;;;14.40;99.90;;;;;;4976217;28;20050;-87
2022/10/24 06:38:02;;;;;;;9.15;1.40;;;14.40;99.90;;;;;;4979023;28;20162;-88
2022/10/24 06:40:28;;;;;;;9.00;2.28;;;14.40;99.90;;;;;;4977607;28;20083;-85
2022/10/24 06:42:55;;;;;;;11.02;2.00;;;14.40;99.90;;;;;;4957648;28;20526;-86
2022/10/24 06:45:22;;;;;;;10.15;1.77;;;14.40;99.90;;;;;;4976433;28;20046;-84
2022/10/24 06:47:49;;;;;;;9.10;1.95;;;14.40;99.90;;;;;;4959183;28;20125;-86
2022/10/24 06:50:15;;;;;;;8.63;1.70;;;14.50;99.90;;;;;;4960002;28;20399;-90
2022/10/24 06:52:41;;;;;;;13.98;1.98;;;14.40;99.90;;;;;;4977214;28;20513;-88
2022/10/24 06:55:08;;;;;;;6.43;1.23;;;14.50;99.90;;;;;;4973531;28;20105;-89
2022/10/24 06:57:34;;;;;;;13.75;2.85;;;14.50;99.90;;;;;;4955827;28;20066;-83
2022/10/24 07:00:00;;;;;;;8.65;1.58;;;14.50;99.90;;;;;;4972157;28;20526;-83
2022/10/24 07:02:26;;;;;;;8.43;1.50;;;14.50;99.90;;;;;;4974688;28;20046;-86
2022/10/24 07:04:52;;;;;;;8.00;1.60;;;14.50;99.90;;;;;;4956394;28;20550;-86
2022/10/24 07:07:20;;;;;;;9.52;1.75;;;14.50;99.90;;;;;;4974858;28;20093;-85
2022/10/24 07:09:56;;;;;;;8.10;1.40;;;14.40;99.90;;;;;;4956793;28;20054;-88
2022/10/24 07:12:22;;;;;;;9.23;2.50;;;14.40;99.90;;;;;;4956303;28;20050;-88
2022/10/24 07:14:49;;;;;;;9.38;1.50;;;14.40;99.90;;;;;;4973555;28;20062;-85
2022/10/24 07:17:16;;;;;;;8.95;1.92;;;14.50;99.90;;;;;;4972937;28;20042;-86
2022/10/24 07:19:42;;;;;;;15.20;2.60;;;14.40;99.90;;;;;;4973759;28;20577;-88
2022/10/24 07:22:08;;;;;;;7.13;1.75;;;14.50;99.90;;;;;;4976242;28;20050;-86
2022/10/24 07:24:35;;;;;;;7.32;1.70;;;14.50;99.90;;;;;;4974812;28;20051;-85
2022/10/24 07:27:01;;;;;;;6.13;1.40;;;14.50;99.90;;;;;;4955811;28;20074;-85
2022/10/24 07:29:27;;;;;;;16.55;1.92;;;14.50;99.90;;;;;;4973350;28;20471;-86
2022/10/24 07:31:53;;;;;;;7.75;1.50;;;14.60;99.90;;;;;;4955632;28;20086;-84
2022/10/24 07:34:19;;;;;;;5.30;1.40;;;14.70;99.90;;;;;;4956623;28;20538;-90
2022/10/24 07:36:45;;;;;;;10.35;1.45;;;14.70;99.90;;;;;;4955712;28;20082;-86
2022/10/24 07:39:12;;;;;;;9.18;1.77;;;14.80;99.90;;;;;;4940217;28;20087;-88
2022/10/24 07:41:40;;;;;;;5.60;1.23;;;14.80;99.90;;;;;;4972579;28;20140;-86
2022/10/24 07:44:09;;;;;;;7.88;1.75;;;14.80;99.90;;;;;;4973615;28;20641;-86
2022/10/24 07:46:36;;;;;;;8.98;1.30;;;14.90;99.90;;;;;;4939930;28;20053;-82
2022/10/24 07:49:02;;;;;;;9.20;1.70;;;14.80;99.90;;;;;;4956454;28;20058;-83
2022/10/24 07:51:28;;;;;;;12.15;2.15;;;14.80;99.90;;;;;;4974653;28;20113;-86
2022/10/24 07:53:56;;;;;;;7.07;1.40;;;14.90;99.90;;;;;;4972479;28;20061;-82
2022/10/24 07:56:22;;;;;;;11.38;1.60;;;14.90;99.90;;;;;;4955124;28;20055;-86
2022/10/24 07:58:48;;;;;;;7.32;1.35;;;15.00;99.90;;;;;;4972645;28;20046;-85
2022/10/24 08:01:21;;;;;;;8.20;1.27;;;15.00;99.90;;;;;;4972538;28;20105;-86
2022/10/24 08:03:47;;;;;;;7.55;1.65;;;15.00;99.90;;;;;;4973406;28;20050;-85
2022/10/24 08:06:17;;;;;;;8.75;1.58;;;15.10;99.90;;;;;;4973143;28;20046;-83
2022/10/24 08:08:44;;;;;;;6.88;1.67;;;15.20;99.90;;;;;;4972402;28;20138;-85
2022/10/24 08:11:21;;;;;;;8.02;1.67;;;15.20;99.90;;;;;;4972218;28;20090;-85
2022/10/24 08:13:49;;;;;;;10.63;2.67;;;15.30;99.90;;;;;;4971944;28;20066;-83
2022/10/24 08:16:16;;;;;;;13.32;1.75;;;15.40;99.90;;;;;;4971587;28;20149;-84
2022/10/24 08:18:43;;;;;;;8.43;1.85;;;15.40;99.90;;;;;;4956909;28;20506;-88
2022/10/24 08:21:11;;;;;;;8.43;1.67;;;15.40;99.90;;;;;;4974356;28;20061;-87
2022/10/24 08:23:40;;;;;;;9.57;1.90;;;15.40;99.90;;;;;;4978895;28;20051;-87
2022/10/24 08:26:10;;;;;;;10.95;2.25;;;15.40;99.90;;;;;;4961606;28;20043;-83
2022/10/24 08:28:36;;;;;;;9.95;1.80;;;15.50;99.90;;;;;;4961257;28;20502;-89
2022/10/24 08:31:05;;;;;;;12.65;2.33;;;15.40;99.90;;;;;;4978451;28;20102;-86
2022/10/24 08:33:31;;;;;;;6.97;1.40;;;15.40;99.90;;;;;;4963215;28;20050;-83
2022/10/24 08:36:00;;;;;;;11.18;1.70;;;15.50;99.90;;;;;;4979991;28;20066;-85
2022/10/24 08:38:27;;;;;;;5.55;1.48;;;15.50;99.90;;;;;;4979967;28;20039;-83
2022/10/24 08:40:53;;;;;;;11.98;1.23;;;15.60;99.90;;;;;;4962745;28;20047;-85
2022/10/24 08:43:20;;;;;;;7.68;1.73;;;15.60;99.90;;;;;;4963447;28;20082;-86
2022/10/24 08:46:09;;;;;;;11.15;3.60;;;15.60;99.90;;;;;;4978571;28;20133;-82
2022/10/24 08:48:49;;;;;;;11.13;1.55;;;15.60;99.90;;;;;;4979332;28;20529;-82
2022/10/24 08:51:42;;;;;;;9.35;1.30;;;15.70;99.90;;;;;;4962395;28;20050;-85
2022/10/24 08:54:15;;;;;;;7.90;1.13;;;15.70;99.90;;;;;;4926312;28;20058;-84
2022/10/24 08:56:41;;;;;;;7.63;1.25;;;15.70;99.90;;;;;;4960527;28;20483;-84
2022/10/24 08:59:12;;;;;;;5.10;1.65;;;15.80;99.90;;;;;;4961167;28;20060;-83
2022/10/24 09:01:48;;;;;;;9.73;1.10;;;15.80;99.90;;;;;;4960174;28;20105;-85
2022/10/24 09:04:19;;;;;;;10.90;1.65;;;15.90;99.90;;;;;;4977557;28;20141;-89
2022/10/24 09:06:46;;;;;;;9.02;1.63;;;15.80;99.90;;;;;;4977647;28;20109;-83
2022/10/24 09:09:30;;;;;;;7.10;1.67;;;15.80;99.90;;;;;;4979625;28;20464;-86
2022/10/24 09:12:12;;;;;;;10.45;1.73;;;15.80;99.90;;;;;;4976074;28;20051;-84
2022/10/24 09:14:41;;;;;;;9.35;1.75;;;16.00;99.90;;;;;;4961260;28;20137;-87
2022/10/24 09:17:32;;;;;;;8.63;1.58;;;16.00;99.90;;;;;;4976427;28;20059;-84
2022/10/24 09:20:19;;;;;;;7.75;1.67;;;15.90;99.90;;;;;;4958770;28;20467;-86
2022/10/24 09:22:46;;;;;;;7.78;1.52;;;15.80;99.90;;;;;;4975911;28;20051;-84
2022/10/24 09:25:16;;;;;;;6.57;1.13;;;15.80;99.90;;;;;;4976841;28;20073;-88
2022/10/24 09:27:43;;;;;;;12.00;1.65;;;15.80;99.90;;;;;;4982306;28;20054;-85
2022/10/24 09:30:23;;;;;;;5.55;1.30;;;15.90;99.90;;;;;;4959473;28;20161;-84
2022/10/24 09:32:50;;;;;;;7.47;1.35;;;16.00;99.90;;;;;;4959325;28;20066;-85
2022/10/24 09:35:29;;;;;;;9.23;1.70;;;15.90;99.90;;;;;;4961676;28;20117;-85
2022/10/24 09:37:57;;;;;;;9.65;1.67;;;15.80;99.90;;;;;;4979914;28;20050;-84
2022/10/24 09:40:30;;;;;;;12.93;2.10;;;15.80;99.90;;;;;;4945463;28;20077;-83
2022/10/24 09:43:02;;;;;;;7.90;1.38;;;15.60;99.90;;;;;;4976319;28;20063;-87
2022/10/24 09:45:34;;;;;;;15.15;1.90;;;15.60;99.90;;;;;;4959510;28;20055;-85
2022/10/24 09:48:23;;;;;;;6.72;1.67;;;15.50;99.90;;;;;;4976309;28;20537;-88
2022/10/24 09:50:51;;;;;;;10.38;1.75;;;15.30;99.90;;;;;;4976216;28;20581;-87
2022/10/24 09:53:31;;;;;;;10.75;1.55;;;15.30;99.90;;;;;;4960205;28;20095;-87
2022/10/24 09:56:05;;;;;;;9.00;2.00;;;15.40;99.90;;;;;;4975278;28;20058;-86
2022/10/24 09:58:32;;;;;;;11.90;2.27;;;15.50;99.90;;;;;;4958446;28;20088;-88
2022/10/24 10:01:03;;;;;;;11.25;2.40;;;15.40;99.90;;;;;;4942028;28;20302;-87
2022/10/24 10:03:31;;;;;;;7.55;1.55;;;15.40;99.90;;;;;;4942958;28;20058;-85
2022/10/24 10:06:03;;;;;;;7.70;1.42;;;15.50;99.90;;;;;;4959617;28;20148;-85
2022/10/24 10:08:34;;;;;;;7.70;1.38;;;15.60;99.90;;;;;;4962453;28;20055;-83
2022/10/24 10:11:08;;;;;;;9.93;1.80;;;15.80;99.90;;;;;;4977918;28;20061;-88
2022/10/24 10:13:44;;;;;;;9.23;1.55;;;15.80;99.90;;;;;;4961269;28;20069;-84
2022/10/24 10:16:22;;;;;;;10.32;2.20;;;16.00;99.90;;;;;;4946049;28;20422;-83
2022/10/24 10:18:48;;;;;;;13.20;2.13;;;16.10;99.90;;;;;;4976132;28;20051;-83
2022/10/24 10:21:18;;;;;;;8.25;1.70;;;16.20;99.90;;;;;;4974523;28;20054;-85
2022/10/24 10:23:52;;;;;;;13.75;1.98;;;16.30;99.90;;;;;;4974558;28;20062;-82
2022/10/24 10:26:21;;;;;;;13.93;1.80;;;16.40;99.90;;;;;;4974242;28;20374;-82
2022/10/24 10:29:01;;;;;;;10.48;2.55;;;16.50;99.90;;;;;;4973906;28;20787;-83
2022/10/24 10:31:43;;;;;;;10.68;2.38;;;16.60;99.90;;;;;;4956271;28;20058;-86
2022/10/24 10:34:37;;;;;;;9.10;2.17;;;16.70;99.90;;;;;;4973352;28;20065;-84
2022/10/24 10:37:27;;;;;;;9.13;2.35;;;16.60;99.90;;;;;;4957024;28;20046;-84
2022/10/24 10:40:16;;;;;;;12.20;1.77;;;16.40;99.90;;;;;;4959742;28;20050;-89
2022/10/24 10:43:03;;;;;;;12.55;2.72;;;16.30;99.90;;;;;;4955558;28;20054;-84
2022/10/24 10:45:44;;;;;;;12.63;2.78;;;16.20;99.90;;;;;;4974528;28;20051;-87
2022/10/24 10:48:36;;;;;;;11.30;3.55;;;16.10;99.90;;;;;;4972956;28;20051;-85
2022/10/24 10:51:09;;;;;;;9.27;1.60;;;16.00;99.90;;;;;;4973979;28;20736;-83
2022/10/24 10:54:18;;;;;;;12.50;1.77;;;15.90;99.90;;;;;;4956129;28;20129;-85
2022/10/24 10:57:05;;;;;;;10.80;1.73;;;15.70;99.90;;;;;;4956215;28;20055;-83
2022/10/24 10:59:56;;;;;;;10.35;2.75;;;15.60;99.90;;;;;;4973530;28;20086;-83
2022/10/24 11:02:24;;;;;;;19.98;2.97;;;15.60;99.90;;;;;;4976192;28;20061;-85
2022/10/24 11:05:05;;;;;;;10.43;2.53;;;15.90;99.90;;;;;;4975567;28;20499;-86
2022/10/24 11:07:41;;;;;;;15.90;2.53;;;16.40;99.90;;;;;;4974373;28;20047;-83
2022/10/24 11:10:13;;;;;;;11.90;3.00;;;16.60;99.90;;;;;;4974334;28;20486;-85
2022/10/24 11:12:44;;;;;;;15.88;2.63;;;16.40;99.90;;;;;;4956848;28;20061;-84
2022/10/24 11:15:33;;;;;;;14.65;2.67;;;16.20;99.90;;;;;;4956260;28;20064;-86
2022/10/24 11:18:20;;;;;;;10.40;2.58;;;16.00;99.90;;;;;;4974441;28;20058;-83
2022/10/24 11:20:52;;;;;;;17.90;3.30;;;15.80;99.90;;;;;;4958139;28;20113;-83
2022/10/24 11:23:24;;;;;;;12.90;2.67;;;15.70;99.90;;;;;;4978029;28;20619;-87
2022/10/24 11:26:02;;;;;;;19.38;2.90;;;15.50;99.90;;;;;;4977022;28;20062;-84
2022/10/24 11:29:11;;;;;;;13.07;2.42;;;15.40;99.90;;;;;;4975628;28;20074;-84
2022/10/24 11:31:46;;;;;;;10.63;2.55;;;15.30;99.90;;;;;;4895299;29;20052;-84
2022/10/24 11:34:25;;;;;;;13.07;2.60;;;15.60;99.90;;;;;;4944980;28;20107;-85
2022/10/24 11:36:55;;;;;;;16.27;2.47;;;15.70;99.90;;;;;;4973545;28;20053;-84
2022/10/24 11:39:33;;;;;;;14.15;2.50;;;15.50;99.90;;;;;;4972982;28;20399;-83
2022/10/24 11:42:16;;;;;;;11.88;2.20;;;15.40;99.90;;;;;;4972693;28;20062;-83
2022/10/24 11:44:46;;;;;;;16.35;2.85;;;15.30;99.90;;;;;;4973374;28;20055;-88
2022/10/24 11:47:24;;;;;;;13.75;3.20;;;15.20;99.90;;;;;;4972814;28;20086;-86
2022/10/24 11:50:18;;;;;;;15.32;2.92;;;15.10;99.90;;;;;;4972464;28;20065;-84
2022/10/24 11:53:13;;;;;;;13.98;2.85;;;14.90;99.90;;;;;;4958636;28;20054;-84
2022/10/24 11:55:46;;;;;;;11.38;2.70;;;14.70;99.90;;;;;;4903315;28;20056;-88
2022/10/24 11:58:20;;;;;;;15.68;2.33;;;14.60;99.90;;;;;;4972660;28;20074;-85
2022/10/24 12:01:29;;;;;;;11.95;2.50;;;14.60;99.90;;;;;;4972842;28;20118;-86
2022/10/24 12:04:01;;;;;;;12.73;2.20;;;14.90;99.90;;;;;;4970973;28;20066;-87
2022/10/24 12:06:55;;;;;;;15.68;2.80;;;15.10;99.90;;;;;;4956257;28;20062;-84
2022/10/24 12:09:42;;;;;;;15.60;2.85;;;15.30;99.90;;;;;;4972953;28;20066;-85
2022/10/24 12:12:40;;;;;;;12.50;2.63;;;15.30;99.90;;;;;;4955517;28;20130;-85
2022/10/24 12:15:24;;;;;;;17.98;3.88;;;15.20;99.90;;;;;;4888548;28;20054;-84
2022/10/24 12:18:09;;;;;;;10.93;2.15;;;15.10;99.90;;;;;;4954554;28;20054;-83
2022/10/24 12:20:36;;;;;;;20.02;3.53;;;15.00;99.90;;;;;;4972137;28;20065;-84
2022/10/24 12:23:03;;;;;;;10.98;2.50;;;15.00;99.90;;;;;;4972109;28;20383;-85
2022/10/24 12:25:36;;;;;;;11.65;2.30;;;15.00;99.90;;;;;;4973222;28;20510;-84
2022/10/24 12:28:17;;;;;;;14.50;3.00;;;15.00;99.90;;;;;;4974460;28;20137;-85
2022/10/24 12:31:03;;;;;;;14.43;2.47;;;15.00;99.90;;;;;;4955143;28;20142;-87
2022/10/24 12:33:29;;;;;;;10.95;2.63;;;14.90;99.90;;;;;;4939292;28;20458;-83
2022/10/24 12:35:56;;;;;;;9.25;1.90;;;14.80;99.90;;;;;;4973446;28;20387;-86
2022/10/24 12:38:27;;;;;;;9.25;1.98;;;14.70;99.90;;;;;;4972296;28;20106;-85
2022/10/24 12:40:57;;;;;;;13.13;2.40;;;14.60;99.90;;;;;;4972030;28;20093;-86
2022/10/24 12:43:27;;;;;;;14.07;2.65;;;14.70;99.90;;;;;;4971907;28;20170;-84
2022/10/24 12:45:53;;;;;;;10.82;2.20;;;15.00;99.90;;;;;;4972554;28;20122;-84
2022/10/24 12:48:35;;;;;;;15.38;2.40;;;15.60;99.90;;;;;;4973165;28;20101;-84
2022/10/24 12:51:02;;;;;;;11.57;1.95;;;16.50;99.90;;;;;;4973582;28;20055;-83
2022/10/24 12:53:59;;;;;;;12.38;1.63;;;17.00;99.90;;;;;;4972181;28;20172;-85
2022/10/24 12:56:25;;;;;;;11.80;2.67;;;17.40;99.90;;;;;;4955391;28;20145;-82
2022/10/24 12:59:20;;;;;;;10.48;1.77;;;18.00;99.90;;;;;;4954995;28;20168;-85
2022/10/24 13:01:49;;;;;;;16.35;2.63;;;18.30;99.90;;;;;;4948754;28;20138;-82
2022/10/24 13:04:29;;;;;;;6.82;1.48;;;17.90;99.90;;;;;;4954375;28;20090;-82